createdAt,value
2022-12-14T00:01:31.951Z,3.38
2022-12-14T00:06:41.040Z,3.65
2022-12-14T00:11:49.555Z,2.85
2022-12-14T00:16:58.297Z,3.19
2022-12-14T00:22:06.528Z,3.35
2022-12-14T00:27:15.547Z,3.54
2022-12-14T00:32:23.950Z,2.69
2022-12-14T00:37:32.342Z,3.45
2022-12-14T00:42:40.928Z,3.40
2022-12-14T00:47:49.636Z,3.46
2022-12-14T00:52:57.924Z,3.31
2022-12-14T00:58:06.622Z,3.39
2022-12-14T01:03:15.469Z,3.12
2022-12-14T01:08:24.087Z,3.25
2022-12-14T01:13:32.373Z,2.99
2022-12-14T01:18:41.059Z,3.05
2022-12-14T01:23:49.443Z,2.75
2022-12-14T01:28:58.099Z,3.22
2022-12-14T01:34:06.324Z,3.20
2022-12-14T01:39:14.905Z,3.20
2022-12-14T01:44:23.388Z,3.47
2022-12-14T01:49:31.856Z,3.54
2022-12-14T01:54:40.077Z,3.95
2022-12-14T01:59:48.940Z,3.60
2022-12-14T02:04:56.952Z,3.69
2022-12-14T02:10:05.664Z,3.48
2022-12-14T02:15:14.013Z,4.21
2022-12-14T02:20:22.746Z,3.92
2022-12-14T02:25:31.071Z,4.03
2022-12-14T02:30:39.692Z,4.01
2022-12-14T02:35:47.953Z,3.91
2022-12-14T02:40:56.712Z,3.76
2022-12-14T02:46:05.122Z,3.65
2022-12-14T02:51:13.969Z,3.68
2022-12-14T02:56:22.212Z,3.69
2022-12-14T03:01:31.142Z,3.59
2022-12-14T03:06:39.338Z,3.64
2022-12-14T03:11:48.361Z,3.91
2022-12-14T03:16:56.694Z,4.08
2022-12-14T03:22:05.239Z,4.23
2022-12-14T03:27:13.378Z,4.16
2022-12-14T03:32:22.271Z,4.34
2022-12-14T03:37:30.940Z,5.37
2022-12-14T03:42:39.580Z,4.78
2022-12-14T03:47:48.157Z,4.40
2022-12-14T03:52:56.718Z,4.68
2022-12-14T03:58:05.311Z,4.50
2022-12-14T04:03:14.287Z,4.94
2022-12-14T04:08:22.734Z,4.67
2022-12-14T04:13:31.633Z,4.65
2022-12-14T04:18:39.959Z,4.65
2022-12-14T04:23:48.993Z,5.03
2022-12-14T04:28:57.235Z,5.30
2022-12-14T04:34:06.266Z,5.48
2022-12-14T04:39:14.989Z,5.40
2022-12-14T04:44:23.681Z,5.24
2022-12-14T04:49:32.243Z,6.38
2022-12-14T04:54:41.336Z,5.73
2022-12-14T04:59:50.012Z,5.86
2022-12-14T05:04:58.593Z,6.12
2022-12-14T05:10:06.984Z,6.19
2022-12-14T05:15:15.783Z,6.17
2022-12-14T05:20:24.160Z,6.14
2022-12-14T05:25:33.267Z,6.20
2022-12-14T05:30:41.649Z,6.23
2022-12-14T05:35:50.495Z,6.14
2022-12-14T05:40:58.752Z,6.05
2022-12-14T05:46:07.638Z,6.36
2022-12-14T05:51:16.363Z,7.56
2022-12-14T05:56:25.304Z,6.30
2022-12-14T06:01:33.749Z,6.41
2022-12-14T06:06:43.007Z,6.32
2022-12-14T06:11:51.448Z,6.32
2022-12-14T06:17:00.443Z,6.53
2022-12-14T06:22:08.777Z,6.42
2022-12-14T06:27:17.503Z,6.38
2022-12-14T06:32:26.255Z,6.22
2022-12-14T06:37:35.125Z,6.22
2022-12-14T06:42:44.441Z,6.35
2022-12-14T06:47:54.237Z,6.07
2022-12-14T06:53:03.574Z,6.52
2022-12-14T06:58:12.261Z,5.90
2022-12-14T07:03:20.891Z,6.21
2022-12-14T07:08:29.992Z,5.99
2022-12-14T07:13:38.489Z,6.10
2022-12-14T07:18:47.307Z,6.27
2022-12-14T07:23:55.697Z,5.72
2022-12-14T07:29:05.186Z,5.90
2022-12-14T07:34:13.659Z,5.94
2022-12-14T07:39:22.149Z,6.05
2022-12-14T07:44:30.857Z,6.58
2022-12-14T07:49:39.818Z,6.23
2022-12-14T07:54:48.420Z,6.20
2022-12-14T07:59:57.558Z,6.13
2022-12-14T08:05:10.691Z,6.25
2022-12-14T08:10:14.531Z,6.06
2022-12-14T08:15:22.904Z,6.41
2022-12-14T08:20:31.697Z,6.48
2022-12-14T08:25:40.344Z,6.28
2022-12-14T08:30:49.595Z,7.55
2022-12-14T08:35:58.533Z,7.07
2022-12-14T08:41:07.338Z,7.08
2022-12-14T08:46:16.214Z,6.69
2022-12-14T08:51:25.030Z,6.71
2022-12-14T08:56:33.538Z,7.01
2022-12-14T09:01:42.771Z,6.80
2022-12-14T09:06:50.883Z,6.53
2022-12-14T09:11:59.838Z,6.35
2022-12-14T09:17:08.473Z,6.53
2022-12-14T09:22:17.059Z,5.79
2022-12-14T09:27:25.810Z,6.36
2022-12-14T09:32:34.988Z,6.41
2022-12-14T09:37:43.433Z,5.14
2022-12-14T09:42:52.501Z,5.92
2022-12-14T09:48:01.495Z,5.57
2022-12-14T09:53:10.555Z,5.63
2022-12-14T09:58:19.187Z,5.69
2022-12-14T10:03:28.482Z,5.95
2022-12-14T10:08:36.324Z,5.85
2022-12-14T10:13:45.262Z,5.14
2022-12-14T10:19:01.430Z,4.84
2022-12-14T10:24:02.736Z,5.17
2022-12-14T10:29:10.904Z,6.12
2022-12-14T10:34:19.970Z,5.27
2022-12-14T10:39:28.533Z,5.33
2022-12-14T10:44:37.598Z,4.57
2022-12-14T10:49:46.250Z,4.84
2022-12-14T10:54:55.534Z,5.09
2022-12-14T11:00:08.997Z,5.09
2022-12-14T11:05:12.722Z,5.51
2022-12-14T11:10:21.375Z,5.64
2022-12-14T11:15:30.246Z,6.07
2022-12-14T11:20:38.346Z,6.25
2022-12-14T11:25:47.253Z,6.23
2022-12-14T11:30:56.059Z,6.24
2022-12-14T11:36:04.980Z,5.98
2022-12-14T11:41:13.812Z,6.44
2022-12-14T11:46:22.937Z,6.42
2022-12-14T11:51:31.373Z,6.72
2022-12-14T11:56:40.311Z,6.79
2022-12-14T12:01:48.820Z,6.91
2022-12-14T12:07:02.844Z,7.03
2022-12-14T12:12:05.772Z,6.40
2022-12-14T12:17:14.761Z,7.02
2022-12-14T12:22:23.798Z,6.49
2022-12-14T12:27:32.729Z,6.58
2022-12-14T12:32:40.966Z,6.39
2022-12-14T12:37:50.450Z,6.64
2022-12-14T12:42:58.837Z,6.90
2022-12-14T12:48:07.865Z,6.46
2022-12-14T12:53:16.310Z,6.88
2022-12-14T12:58:24.893Z,7.15
2022-12-14T13:03:33.457Z,14.15
2022-12-14T13:08:42.836Z,14.31
2022-12-14T13:13:50.976Z,7.86
2022-12-14T13:19:08.684Z,7.45
2022-12-14T13:24:07.997Z,7.45
2022-12-14T13:29:17.200Z,8.27
2022-12-14T13:34:25.559Z,7.22
2022-12-14T13:39:34.508Z,10.12
2022-12-14T13:44:44.194Z,8.31
2022-12-14T13:50:18.636Z,8.81
2022-12-14T13:55:00.187Z,8.51
2022-12-14T14:00:09.028Z,10.19
2022-12-14T14:05:18.184Z,9.63
2022-12-14T14:10:27.494Z,11.24
2022-12-14T14:15:36.224Z,10.88
2022-12-14T14:20:45.425Z,11.69
2022-12-14T14:25:53.916Z,9.15
2022-12-14T14:31:02.886Z,8.53
2022-12-14T14:36:11.328Z,7.15
2022-12-14T14:41:20.179Z,8.17
2022-12-14T14:46:28.848Z,7.98
2022-12-14T14:51:37.897Z,8.22
2022-12-14T14:56:49.731Z,8.57
2022-12-14T15:01:48.278Z,8.25
2022-12-14T15:06:56.667Z,8.69
2022-12-14T15:12:05.562Z,8.37
2022-12-14T15:17:13.915Z,8.57
2022-12-14T15:22:22.620Z,8.79
2022-12-14T15:27:31.441Z,8.96
2022-12-14T15:32:44.321Z,8.76
2022-12-14T15:37:48.144Z,8.85
2022-12-14T15:42:57.409Z,8.64
2022-12-14T15:48:05.983Z,8.52
2022-12-14T15:53:15.227Z,8.38
2022-12-14T15:58:23.973Z,8.47
2022-12-14T16:03:33.184Z,9.39
2022-12-14T16:08:41.068Z,8.81
2022-12-14T16:13:49.916Z,8.78
2022-12-14T16:19:20.366Z,8.76
2022-12-14T16:24:06.525Z,9.07
2022-12-14T16:29:14.827Z,8.71
2022-12-14T16:34:23.636Z,9.57
2022-12-14T16:39:32.062Z,11.91
2022-12-14T16:44:41.053Z,9.48
2022-12-14T16:49:49.415Z,8.54
2022-12-14T16:54:57.688Z,8.93
2022-12-14T17:00:06.403Z,9.14
2022-12-14T17:05:15.290Z,8.20
2022-12-14T17:10:24.516Z,8.21
2022-12-14T17:15:33.260Z,7.97
2022-12-14T17:20:42.021Z,7.96
2022-12-14T17:25:55.521Z,8.13
2022-12-14T17:30:53.663Z,8.77
2022-12-14T17:36:02.452Z,9.33
2022-12-14T17:41:11.973Z,8.58
2022-12-14T17:46:21.473Z,8.38
2022-12-14T17:51:30.510Z,8.00
2022-12-14T17:56:39.463Z,7.46
2022-12-14T18:01:49.644Z,7.81
2022-12-14T18:06:48.664Z,8.44
2022-12-14T18:12:22.174Z,8.87
2022-12-14T18:17:11.203Z,9.49
2022-12-14T18:22:15.065Z,9.26
2022-12-14T18:27:24.447Z,9.60
2022-12-14T18:32:34.491Z,9.57
2022-12-14T18:37:33.532Z,9.28
2022-12-14T18:42:42.678Z,8.70
2022-12-14T18:47:51.955Z,9.04
2022-12-14T18:53:04.904Z,8.84
2022-12-14T18:58:04.497Z,8.66
2022-12-14T19:03:14.840Z,8.07
2022-12-14T19:08:15.037Z,8.19
2022-12-14T19:13:14.459Z,7.54
2022-12-14T19:18:24.789Z,7.69
2022-12-14T19:23:25.348Z,7.78
2022-12-14T19:28:32.625Z,7.65
2022-12-14T19:33:26.854Z,7.79
2022-12-14T19:43:39.539Z,7.57
2022-12-14T19:48:39.302Z,7.88
2022-12-14T19:53:48.080Z,7.61
2022-12-14T19:58:57.012Z,7.37
2022-12-14T20:04:06.109Z,8.08
2022-12-14T20:09:14.412Z,7.34
2022-12-14T20:14:24.692Z,7.48
2022-12-14T20:19:23.044Z,7.97
2022-12-14T20:24:31.813Z,8.09
2022-12-14T20:29:40.893Z,8.43
2022-12-14T20:34:49.643Z,8.32
2022-12-14T20:39:58.295Z,9.19
2022-12-14T20:45:07.515Z,8.91
2022-12-14T20:50:15.730Z,9.06
2022-12-14T20:55:25.674Z,8.77
2022-12-14T21:00:34.302Z,8.79
2022-12-14T21:05:43.218Z,9.35
2022-12-14T21:10:51.653Z,9.76
2022-12-14T21:16:00.771Z,10.37
2022-12-14T21:21:09.101Z,10.48
2022-12-14T21:26:17.565Z,10.09
2022-12-14T21:31:25.844Z,10.14
2022-12-14T21:36:34.815Z,9.33
2022-12-14T21:41:43.418Z,9.54
2022-12-14T21:46:52.113Z,9.10
2022-12-14T21:52:02.364Z,9.00
2022-12-14T21:57:08.638Z,8.98
2022-12-14T22:02:17.173Z,9.26
2022-12-14T22:07:25.918Z,9.32
2022-12-14T22:12:34.320Z,9.39
2022-12-14T22:17:43.168Z,9.93
2022-12-14T22:22:51.693Z,9.02
2022-12-14T22:28:00.036Z,9.51
2022-12-14T22:33:08.543Z,10.09
2022-12-14T22:38:17.337Z,9.77
2022-12-14T22:43:29.739Z,9.80
2022-12-14T22:48:33.945Z,9.94
2022-12-14T22:53:42.476Z,10.25
2022-12-14T22:58:50.986Z,10.12
2022-12-14T23:03:59.389Z,9.63
2022-12-14T23:09:07.892Z,10.17
2022-12-14T23:14:16.709Z,10.06
2022-12-14T23:19:25.465Z,10.70
2022-12-14T23:24:34.093Z,9.49
2022-12-14T23:29:42.693Z,10.07
2022-12-14T23:34:51.075Z,9.87
2022-12-14T23:39:59.349Z,10.22
2022-12-14T23:45:08.018Z,10.81
2022-12-14T23:50:16.812Z,11.60
2022-12-14T23:55:25.277Z,10.91
